sensor_id;sensor_type;location;lat;lon;timestamp;P1;durP1;ratioP1;P2;durP2;ratioP2
60993;SDS011;47611;54.932;73.338;2022-08-01T00:00:51;25.58;;;20.45;;
60993;SDS011;47611;54.932;73.338;2022-08-01T00:04:18;25.67;;;19.30;;
60993;SDS011;47611;54.932;73.338;2022-08-01T00:07:44;29.83;;;19.48;;
60993;SDS011;47611;54.932;73.338;2022-08-01T00:11:21;26.05;;;18.08;;
60993;SDS011;47611;54.932;73.338;2022-08-01T00:14:47;22.48;;;17.13;;
60993;SDS011;47611;54.932;73.338;2022-08-01T00:18:13;19.40;;;16.63;;
60993;SDS011;47611;54.932;73.338;2022-08-01T00:21:42;20.48;;;15.30;;
60993;SDS011;47611;54.932;73.338;2022-08-01T00:25:09;17.95;;;16.02;;
60993;SDS011;47611;54.932;73.338;2022-08-01T00:28:40;19.60;;;16.15;;
60993;SDS011;47611;54.932;73.338;2022-08-01T00:32:06;22.67;;;16.38;;
60993;SDS011;47611;54.932;73.338;2022-08-01T00:35:33;22.90;;;17.33;;
60993;SDS011;47611;54.932;73.338;2022-08-01T00:38:59;22.10;;;17.83;;
60993;SDS011;47611;54.932;73.338;2022-08-01T00:42:35;22.17;;;17.80;;
60993;SDS011;47611;54.932;73.338;2022-08-01T00:46:02;20.27;;;16.08;;
60993;SDS011;47611;54.932;73.338;2022-08-01T00:49:28;19.42;;;15.88;;
60993;SDS011;47611;54.932;73.338;2022-08-01T00:52:55;17.27;;;15.32;;
60993;SDS011;47611;54.932;73.338;2022-08-01T00:56:24;19.67;;;15.25;;
60993;SDS011;47611;54.932;73.338;2022-08-01T01:00:00;18.80;;;14.82;;
60993;SDS011;47611;54.932;73.338;2022-08-01T01:03:27;17.10;;;15.15;;
60993;SDS011;47611;54.932;73.338;2022-08-01T01:10:25;19.20;;;15.55;;
60993;SDS011;47611;54.932;73.338;2022-08-01T01:14:23;17.60;;;15.48;;
60993;SDS011;47611;54.932;73.338;2022-08-01T01:18:07;18.50;;;15.15;;
60993;SDS011;47611;54.932;73.338;2022-08-01T01:25:10;17.60;;;15.80;;
60993;SDS011;47611;54.932;73.338;2022-08-01T01:29:08;18.02;;;16.13;;
60993;SDS011;47611;54.932;73.338;2022-08-01T01:32:44;18.08;;;15.98;;
60993;SDS011;47611;54.932;73.338;2022-08-01T01:36:12;17.60;;;15.80;;
60993;SDS011;47611;54.932;73.338;2022-08-01T01:39:44;18.73;;;15.90;;
60993;SDS011;47611;54.932;73.338;2022-08-01T01:43:13;17.30;;;15.35;;
60993;SDS011;47611;54.932;73.338;2022-08-01T01:46:42;19.45;;;16.27;;
60993;SDS011;47611;54.932;73.338;2022-08-01T01:50:11;28.67;;;23.65;;
60993;SDS011;47611;54.932;73.338;2022-08-01T01:53:39;31.27;;;27.10;;
60993;SDS011;47611;54.932;73.338;2022-08-01T01:57:08;22.50;;;16.83;;
60993;SDS011;47611;54.932;73.338;2022-08-01T02:00:36;19.88;;;16.80;;
60993;SDS011;47611;54.932;73.338;2022-08-01T02:04:03;27.00;;;22.83;;
60993;SDS011;47611;54.932;73.338;2022-08-01T02:07:36;19.08;;;15.77;;
60993;SDS011;47611;54.932;73.338;2022-08-01T02:11:03;18.42;;;16.15;;
60993;SDS011;47611;54.932;73.338;2022-08-01T02:14:32;18.90;;;16.50;;
60993;SDS011;47611;54.932;73.338;2022-08-01T02:18:06;17.98;;;16.05;;
60993;SDS011;47611;54.932;73.338;2022-08-01T02:21:37;24.25;;;16.63;;
60993;SDS011;47611;54.932;73.338;2022-08-01T02:25:14;18.23;;;16.30;;
60993;SDS011;47611;54.932;73.338;2022-08-01T02:28:47;21.05;;;17.38;;
60993;SDS011;47611;54.932;73.338;2022-08-01T02:32:42;19.75;;;16.73;;
60993;SDS011;47611;54.932;73.338;2022-08-01T02:36:13;20.67;;;16.90;;
60993;SDS011;47611;54.932;73.338;2022-08-01T02:39:41;24.38;;;17.00;;
60993;SDS011;47611;54.932;73.338;2022-08-01T02:43:10;20.52;;;16.67;;
60993;SDS011;47611;54.932;73.338;2022-08-01T02:46:43;19.75;;;17.33;;
60993;SDS011;47611;54.932;73.338;2022-08-01T02:50:10;21.27;;;17.02;;
60993;SDS011;47611;54.932;73.338;2022-08-01T02:53:39;22.45;;;17.98;;
60993;SDS011;47611;54.932;73.338;2022-08-01T02:57:08;22.15;;;18.42;;
60993;SDS011;47611;54.932;73.338;2022-08-01T03:00:44;22.13;;;17.58;;
60993;SDS011;47611;54.932;73.338;2022-08-01T03:04:12;23.55;;;18.20;;
60993;SDS011;47611;54.932;73.338;2022-08-01T03:07:39;19.33;;;17.25;;
60993;SDS011;47611;54.932;73.338;2022-08-01T03:11:07;22.20;;;18.10;;
60993;SDS011;47611;54.932;73.338;2022-08-01T03:14:41;23.10;;;18.30;;
60993;SDS011;47611;54.932;73.338;2022-08-01T03:18:09;23.10;;;18.38;;
60993;SDS011;47611;54.932;73.338;2022-08-01T03:21:38;19.60;;;17.58;;
60993;SDS011;47611;54.932;73.338;2022-08-01T03:25:06;21.00;;;18.83;;
60993;SDS011;47611;54.932;73.338;2022-08-01T03:28:33;21.95;;;19.10;;
60993;SDS011;47611;54.932;73.338;2022-08-01T03:32:10;21.80;;;19.38;;
60993;SDS011;47611;54.932;73.338;2022-08-01T03:35:39;24.85;;;19.00;;
60993;SDS011;47611;54.932;73.338;2022-08-01T03:39:17;23.30;;;19.40;;
60993;SDS011;47611;54.932;73.338;2022-08-01T03:42:48;24.08;;;19.80;;
60993;SDS011;47611;54.932;73.338;2022-08-01T03:46:20;36.67;;;23.30;;
60993;SDS011;47611;54.932;73.338;2022-08-01T03:49:49;44.53;;;24.70;;
60993;SDS011;47611;54.932;73.338;2022-08-01T03:53:20;28.25;;;21.17;;
60993;SDS011;47611;54.932;73.338;2022-08-01T03:56:50;27.02;;;20.27;;
60993;SDS011;47611;54.932;73.338;2022-08-01T04:00:17;29.02;;;20.33;;
60993;SDS011;47611;54.932;73.338;2022-08-01T04:03:44;39.60;;;22.98;;
60993;SDS011;47611;54.932;73.338;2022-08-01T04:07:24;45.80;;;24.52;;
60993;SDS011;47611;54.932;73.338;2022-08-01T04:10:50;39.80;;;24.13;;
60993;SDS011;47611;54.932;73.338;2022-08-01T04:14:17;56.55;;;27.23;;
60993;SDS011;47611;54.932;73.338;2022-08-01T04:17:43;52.13;;;27.13;;
60993;SDS011;47611;54.932;73.338;2022-08-01T04:21:09;45.45;;;26.55;;
60993;SDS011;47611;54.932;73.338;2022-08-01T04:24:43;40.05;;;23.98;;
60993;SDS011;47611;54.932;73.338;2022-08-01T04:28:12;34.90;;;23.92;;
60993;SDS011;47611;54.932;73.338;2022-08-01T04:31:43;38.55;;;29.25;;
60993;SDS011;47611;54.932;73.338;2022-08-01T04:35:12;45.65;;;25.48;;
60993;SDS011;47611;54.932;73.338;2022-08-01T04:38:42;33.03;;;23.33;;
60993;SDS011;47611;54.932;73.338;2022-08-01T04:42:11;25.45;;;21.98;;
60993;SDS011;47611;54.932;73.338;2022-08-01T04:45:39;58.20;;;27.95;;
60993;SDS011;47611;54.932;73.338;2022-08-01T04:49:07;75.55;;;30.50;;
60993;SDS011;47611;54.932;73.338;2022-08-01T04:52:35;69.43;;;29.52;;
60993;SDS011;47611;54.932;73.338;2022-08-01T04:56:11;30.40;;;22.08;;
60993;SDS011;47611;54.932;73.338;2022-08-01T04:59:43;29.23;;;21.60;;
60993;SDS011;47611;54.932;73.338;2022-08-01T05:03:09;26.30;;;23.60;;
60993;SDS011;47611;54.932;73.338;2022-08-01T05:06:45;28.67;;;22.85;;
60993;SDS011;47611;54.932;73.338;2022-08-01T05:10:12;26.35;;;23.35;;
60993;SDS011;47611;54.932;73.338;2022-08-01T05:13:38;25.85;;;22.90;;
60993;SDS011;47611;54.932;73.338;2022-08-01T05:17:05;24.70;;;22.10;;
60993;SDS011;47611;54.932;73.338;2022-08-01T05:20:35;28.40;;;23.25;;
60993;SDS011;47611;54.932;73.338;2022-08-01T05:24:12;27.98;;;21.75;;
60993;SDS011;47611;54.932;73.338;2022-08-01T05:27:38;24.25;;;21.55;;
60993;SDS011;47611;54.932;73.338;2022-08-01T05:31:05;24.50;;;21.95;;
60993;SDS011;47611;54.932;73.338;2022-08-01T05:34:31;26.73;;;23.10;;
60993;SDS011;47611;54.932;73.338;2022-08-01T05:38:02;24.17;;;21.52;;
60993;SDS011;47611;54.932;73.338;2022-08-01T05:41:39;26.30;;;21.92;;
60993;SDS011;47611;54.932;73.338;2022-08-01T05:45:08;25.27;;;22.20;;
60993;SDS011;47611;54.932;73.338;2022-08-01T05:48:34;25.00;;;22.40;;
60993;SDS011;47611;54.932;73.338;2022-08-01T05:52:00;26.80;;;22.42;;
60993;SDS011;47611;54.932;73.338;2022-08-01T05:55:30;24.00;;;21.38;;
60993;SDS011;47611;54.932;73.338;2022-08-01T05:58:57;24.55;;;21.90;;
60993;SDS011;47611;54.932;73.338;2022-08-01T06:02:23;24.30;;;21.20;;
60993;SDS011;47611;54.932;73.338;2022-08-01T06:05:51;24.50;;;21.95;;
60993;SDS011;47611;54.932;73.338;2022-08-01T06:09:17;25.67;;;22.52;;
60993;SDS011;47611;54.932;73.338;2022-08-01T06:12:46;27.98;;;23.50;;
60993;SDS011;47611;54.932;73.338;2022-08-01T06:16:12;26.58;;;22.90;;
60993;SDS011;47611;54.932;73.338;2022-08-01T06:19:38;26.35;;;22.23;;
60993;SDS011;47611;54.932;73.338;2022-08-01T06:23:04;26.13;;;21.92;;
60993;SDS011;47611;54.932;73.338;2022-08-01T06:26:36;25.20;;;22.35;;
60993;SDS011;47611;54.932;73.338;2022-08-01T06:30:12;23.73;;;21.13;;
60993;SDS011;47611;54.932;73.338;2022-08-01T06:33:40;24.55;;;20.80;;
60993;SDS011;47611;54.932;73.338;2022-08-01T06:37:06;23.55;;;20.20;;
60993;SDS011;47611;54.932;73.338;2022-08-01T06:40:33;24.02;;;20.83;;
60993;SDS011;47611;54.932;73.338;2022-08-01T06:44:04;22.75;;;20.23;;
60993;SDS011;47611;54.932;73.338;2022-08-01T06:47:35;22.25;;;19.85;;
60993;SDS011;47611;54.932;73.338;2022-08-01T06:51:06;23.13;;;19.73;;
60993;SDS011;47611;54.932;73.338;2022-08-01T06:54:42;25.48;;;20.33;;
60993;SDS011;47611;54.932;73.338;2022-08-01T06:58:08;24.30;;;19.88;;
60993;SDS011;47611;54.932;73.338;2022-08-01T07:01:35;22.55;;;19.75;;
60993;SDS011;47611;54.932;73.338;2022-08-01T07:05:11;24.88;;;21.02;;
60993;SDS011;47611;54.932;73.338;2022-08-01T07:08:47;31.45;;;21.42;;
60993;SDS011;47611;54.932;73.338;2022-08-01T07:12:14;31.45;;;20.58;;
60993;SDS011;47611;54.932;73.338;2022-08-01T07:15:41;21.98;;;19.60;;
60993;SDS011;47611;54.932;73.338;2022-08-01T07:19:08;22.60;;;18.83;;
60993;SDS011;47611;54.932;73.338;2022-08-01T07:22:39;22.38;;;18.23;;
60993;SDS011;47611;54.932;73.338;2022-08-01T07:26:05;23.52;;;18.38;;
60993;SDS011;47611;54.932;73.338;2022-08-01T07:29:41;22.70;;;17.25;;
60993;SDS011;47611;54.932;73.338;2022-08-01T07:33:13;22.25;;;17.42;;
60993;SDS011;47611;54.932;73.338;2022-08-01T07:36:43;20.27;;;17.48;;
60993;SDS011;47611;54.932;73.338;2022-08-01T07:40:09;31.35;;;17.90;;
60993;SDS011;47611;54.932;73.338;2022-08-01T07:43:36;20.67;;;17.30;;
60993;SDS011;47611;54.932;73.338;2022-08-01T07:47:08;19.90;;;16.65;;
60993;SDS011;47611;54.932;73.338;2022-08-01T07:50:34;19.63;;;15.77;;
60993;SDS011;47611;54.932;73.338;2022-08-01T07:54:06;22.65;;;16.30;;
60993;SDS011;47611;54.932;73.338;2022-08-01T07:57:32;18.02;;;15.68;;
60993;SDS011;47611;54.932;73.338;2022-08-01T08:00:59;17.95;;;15.48;;
60993;SDS011;47611;54.932;73.338;2022-08-01T08:04:26;17.42;;;14.75;;
60993;SDS011;47611;54.932;73.338;2022-08-01T08:07:56;16.85;;;14.68;;
60993;SDS011;47611;54.932;73.338;2022-08-01T08:11:22;17.50;;;14.55;;
60993;SDS011;47611;54.932;73.338;2022-08-01T08:14:57;24.98;;;14.35;;
60993;SDS011;47611;54.932;73.338;2022-08-01T08:18:25;15.70;;;13.68;;
60993;SDS011;47611;54.932;73.338;2022-08-01T08:21:51;16.63;;;13.00;;
60993;SDS011;47611;54.932;73.338;2022-08-01T08:25:18;16.95;;;14.27;;
60993;SDS011;47611;54.932;73.338;2022-08-01T08:28:44;14.50;;;12.93;;
60993;SDS011;47611;54.932;73.338;2022-08-01T08:32:10;16.25;;;13.27;;
60993;SDS011;47611;54.932;73.338;2022-08-01T08:35:38;15.55;;;13.15;;
60993;SDS011;47611;54.932;73.338;2022-08-01T08:39:15;14.07;;;12.52;;
60993;SDS011;47611;54.932;73.338;2022-08-01T08:42:41;61.67;;;9.40;;
60993;SDS011;47611;54.932;73.338;2022-08-01T08:46:08;11.75;;;8.02;;
60993;SDS011;47611;54.932;73.338;2022-08-01T08:49:38;11.70;;;7.88;;
60993;SDS011;47611;54.932;73.338;2022-08-01T08:53:05;13.45;;;8.40;;
60993;SDS011;47611;54.932;73.338;2022-08-01T08:56:34;15.15;;;7.80;;
60993;SDS011;47611;54.932;73.338;2022-08-01T09:00:01;11.68;;;7.13;;
60993;SDS011;47611;54.932;73.338;2022-08-01T09:03:27;8.63;;;7.30;;
60993;SDS011;47611;54.932;73.338;2022-08-01T09:06:54;14.35;;;7.78;;
60993;SDS011;47611;54.932;73.338;2022-08-01T09:10:20;8.15;;;7.00;;
60993;SDS011;47611;54.932;73.338;2022-08-01T09:17:39;7.47;;;6.05;;
60993;SDS011;47611;54.932;73.338;2022-08-01T09:21:20;10.95;;;6.35;;
60993;SDS011;47611;54.932;73.338;2022-08-01T09:25:04;8.02;;;6.57;;
60993;SDS011;47611;54.932;73.338;2022-08-01T09:28:37;8.50;;;6.20;;
60993;SDS011;47611;54.932;73.338;2022-08-01T09:32:04;10.48;;;6.88;;
60993;SDS011;47611;54.932;73.338;2022-08-01T09:35:34;7.78;;;6.00;;
60993;SDS011;47611;54.932;73.338;2022-08-01T09:39:19;10.13;;;6.95;;
60993;SDS011;47611;54.932;73.338;2022-08-01T09:42:45;8.05;;;6.60;;
60993;SDS011;47611;54.932;73.338;2022-08-01T09:46:16;8.43;;;6.75;;
60993;SDS011;47611;54.932;73.338;2022-08-01T09:49:43;10.05;;;6.70;;
60993;SDS011;47611;54.932;73.338;2022-08-01T09:53:12;12.25;;;6.57;;
60993;SDS011;47611;54.932;73.338;2022-08-01T09:56:40;11.75;;;6.60;;
60993;SDS011;47611;54.932;73.338;2022-08-01T10:00:16;8.00;;;5.65;;
60993;SDS011;47611;54.932;73.338;2022-08-01T10:07:33;6.47;;;5.47;;
60993;SDS011;47611;54.932;73.338;2022-08-01T10:11:12;9.70;;;5.20;;
60993;SDS011;47611;54.932;73.338;2022-08-01T10:14:41;7.60;;;5.07;;
60993;SDS011;47611;54.932;73.338;2022-08-01T10:18:08;8.38;;;5.13;;
60993;SDS011;47611;54.932;73.338;2022-08-01T10:21:46;7.80;;;5.00;;
60993;SDS011;47611;54.932;73.338;2022-08-01T10:25:13;9.00;;;4.97;;
60993;SDS011;47611;54.932;73.338;2022-08-01T10:28:41;4.82;;;4.32;;
60993;SDS011;47611;54.932;73.338;2022-08-01T10:36:02;6.55;;;4.38;;
60993;SDS011;47611;54.932;73.338;2022-08-01T10:39:30;9.43;;;4.80;;
60993;SDS011;47611;54.932;73.338;2022-08-01T10:42:57;6.28;;;4.30;;
60993;SDS011;47611;54.932;73.338;2022-08-01T10:46:30;6.32;;;4.40;;
60993;SDS011;47611;54.932;73.338;2022-08-01T10:53:34;4.88;;;4.28;;
60993;SDS011;47611;54.932;73.338;2022-08-01T10:57:13;5.43;;;4.18;;
60993;SDS011;47611;54.932;73.338;2022-08-01T11:00:40;7.63;;;4.22;;
60993;SDS011;47611;54.932;73.338;2022-08-01T11:04:07;4.18;;;3.55;;
60993;SDS011;47611;54.932;73.338;2022-08-01T11:07:43;8.00;;;3.90;;
60993;SDS011;47611;54.932;73.338;2022-08-01T11:11:26;7.70;;;3.90;;
60993;SDS011;47611;54.932;73.338;2022-08-01T11:18:58;3.80;;;3.47;;
60993;SDS011;47611;54.932;73.338;2022-08-01T11:26:24;4.18;;;3.63;;
60993;SDS011;47611;54.932;73.338;2022-08-01T11:37:29;6.30;;;3.55;;
60993;SDS011;47611;54.932;73.338;2022-08-01T11:44:51;9.70;;;4.15;;
60993;SDS011;47611;54.932;73.338;2022-08-01T11:48:25;4.93;;;3.28;;
60993;SDS011;47611;54.932;73.338;2022-08-01T11:51:59;5.88;;;3.00;;
60993;SDS011;47611;54.932;73.338;2022-08-01T11:55:37;4.57;;;3.03;;
60993;SDS011;47611;54.932;73.338;2022-08-01T11:59:03;6.72;;;2.90;;
60993;SDS011;47611;54.932;73.338;2022-08-01T12:02:46;6.53;;;4.93;;
60993;SDS011;47611;54.932;73.338;2022-08-01T12:06:12;10.13;;;3.65;;
60993;SDS011;47611;54.932;73.338;2022-08-01T12:09:40;6.97;;;3.70;;
60993;SDS011;47611;54.932;73.338;2022-08-01T12:13:11;8.60;;;4.75;;
60993;SDS011;47611;54.932;73.338;2022-08-01T12:16:49;13.55;;;7.93;;
60993;SDS011;47611;54.932;73.338;2022-08-01T12:20:21;15.20;;;7.57;;
60993;SDS011;47611;54.932;73.338;2022-08-01T12:24:01;7.88;;;3.45;;
60993;SDS011;47611;54.932;73.338;2022-08-01T12:27:34;4.97;;;2.72;;
60993;SDS011;47611;54.932;73.338;2022-08-01T12:31:06;7.40;;;2.97;;
60993;SDS011;47611;54.932;73.338;2022-08-01T12:34:54;3.55;;;2.50;;
60993;SDS011;47611;54.932;73.338;2022-08-01T12:38:21;3.30;;;2.08;;
60993;SDS011;47611;54.932;73.338;2022-08-01T12:41:47;3.25;;;2.03;;
60993;SDS011;47611;54.932;73.338;2022-08-01T12:45:16;5.03;;;3.15;;
60993;SDS011;47611;54.932;73.338;2022-08-01T12:48:44;4.22;;;2.20;;
60993;SDS011;47611;54.932;73.338;2022-08-01T12:52:21;6.70;;;2.50;;
60993;SDS011;47611;54.932;73.338;2022-08-01T12:55:58;4.05;;;2.40;;
60993;SDS011;47611;54.932;73.338;2022-08-01T12:59:25;7.97;;;2.95;;
60993;SDS011;47611;54.932;73.338;2022-08-01T13:03:02;4.82;;;3.33;;
60993;SDS011;47611;54.932;73.338;2022-08-01T13:06:37;3.97;;;3.00;;
60993;SDS011;47611;54.932;73.338;2022-08-01T13:10:37;4.50;;;3.20;;
60993;SDS011;47611;54.932;73.338;2022-08-01T13:14:03;4.55;;;2.80;;
60993;SDS011;47611;54.932;73.338;2022-08-01T13:21:54;8.00;;;3.05;;
60993;SDS011;47611;54.932;73.338;2022-08-01T13:25:21;5.03;;;2.40;;
60993;SDS011;47611;54.932;73.338;2022-08-01T13:29:09;3.90;;;2.30;;
60993;SDS011;47611;54.932;73.338;2022-08-01T13:32:39;3.95;;;2.45;;
60993;SDS011;47611;54.932;73.338;2022-08-01T13:36:14;5.45;;;2.63;;
60993;SDS011;47611;54.932;73.338;2022-08-01T13:39:43;5.03;;;2.60;;
60993;SDS011;47611;54.932;73.338;2022-08-01T13:43:09;5.45;;;2.80;;
60993;SDS011;47611;54.932;73.338;2022-08-01T13:46:37;4.57;;;3.13;;
60993;SDS011;47611;54.932;73.338;2022-08-01T13:50:05;4.30;;;2.70;;
60993;SDS011;47611;54.932;73.338;2022-08-01T13:53:35;4.13;;;2.80;;
60993;SDS011;47611;54.932;73.338;2022-08-01T13:57:02;6.80;;;2.67;;
60993;SDS011;47611;54.932;73.338;2022-08-01T14:00:28;5.88;;;2.83;;
60993;SDS011;47611;54.932;73.338;2022-08-01T14:03:55;7.40;;;2.92;;
60993;SDS011;47611;54.932;73.338;2022-08-01T14:07:22;7.85;;;3.30;;
60993;SDS011;47611;54.932;73.338;2022-08-01T14:10:48;7.15;;;3.45;;
60993;SDS011;47611;54.932;73.338;2022-08-01T14:14:15;9.85;;;3.10;;
60993;SDS011;47611;54.932;73.338;2022-08-01T14:17:41;7.68;;;3.20;;
60993;SDS011;47611;54.932;73.338;2022-08-01T14:21:07;8.90;;;3.60;;
60993;SDS011;47611;54.932;73.338;2022-08-01T14:24:33;8.85;;;3.67;;
60993;SDS011;47611;54.932;73.338;2022-08-01T14:28:05;10.30;;;4.00;;
60993;SDS011;47611;54.932;73.338;2022-08-01T14:31:32;10.25;;;3.33;;
60993;SDS011;47611;54.932;73.338;2022-08-01T14:35:03;7.45;;;4.20;;
60993;SDS011;47611;54.932;73.338;2022-08-01T14:38:30;7.55;;;4.07;;
60993;SDS011;47611;54.932;73.338;2022-08-01T14:41:57;10.85;;;4.43;;
60993;SDS011;47611;54.932;73.338;2022-08-01T14:45:23;7.07;;;4.13;;
60993;SDS011;47611;54.932;73.338;2022-08-01T14:48:49;10.63;;;5.07;;
60993;SDS011;47611;54.932;73.338;2022-08-01T14:52:26;9.73;;;3.72;;
60993;SDS011;47611;54.932;73.338;2022-08-01T14:55:52;8.57;;;3.40;;
60993;SDS011;47611;54.932;73.338;2022-08-01T14:59:25;8.45;;;3.75;;
60993;SDS011;47611;54.932;73.338;2022-08-01T15:02:51;5.68;;;3.60;;
60993;SDS011;47611;54.932;73.338;2022-08-01T15:06:18;8.80;;;3.40;;
60993;SDS011;47611;54.932;73.338;2022-08-01T15:09:45;7.05;;;3.05;;
60993;SDS011;47611;54.932;73.338;2022-08-01T15:13:11;5.60;;;3.00;;
60993;SDS011;47611;54.932;73.338;2022-08-01T15:20:31;5.10;;;2.70;;
60993;SDS011;47611;54.932;73.338;2022-08-01T15:23:58;5.00;;;2.88;;
60993;SDS011;47611;54.932;73.338;2022-08-01T15:27:26;4.75;;;2.72;;
60993;SDS011;47611;54.932;73.338;2022-08-01T15:30:53;6.15;;;3.78;;
60993;SDS011;47611;54.932;73.338;2022-08-01T15:34:20;6.05;;;3.45;;
60993;SDS011;47611;54.932;73.338;2022-08-01T15:37:46;7.80;;;3.00;;
60993;SDS011;47611;54.932;73.338;2022-08-01T15:41:12;6.28;;;2.95;;
60993;SDS011;47611;54.932;73.338;2022-08-01T15:44:40;5.45;;;2.97;;
60993;SDS011;47611;54.932;73.338;2022-08-01T15:48:11;6.72;;;3.10;;
60993;SDS011;47611;54.932;73.338;2022-08-01T15:51:38;9.05;;;3.35;;
60993;SDS011;47611;54.932;73.338;2022-08-01T15:55:04;11.07;;;3.30;;
60993;SDS011;47611;54.932;73.338;2022-08-01T15:58:30;6.35;;;3.05;;
60993;SDS011;47611;54.932;73.338;2022-08-01T16:01:57;5.28;;;2.90;;
60993;SDS011;47611;54.932;73.338;2022-08-01T16:05:23;6.70;;;2.97;;
60993;SDS011;47611;54.932;73.338;2022-08-01T16:08:49;8.82;;;2.70;;
60993;SDS011;47611;54.932;73.338;2022-08-01T16:12:15;4.78;;;2.85;;
60993;SDS011;47611;54.932;73.338;2022-08-01T16:15:42;7.38;;;3.05;;
60993;SDS011;47611;54.932;73.338;2022-08-01T16:19:15;6.82;;;3.33;;
60993;SDS011;47611;54.932;73.338;2022-08-01T16:22:41;8.85;;;4.40;;
60993;SDS011;47611;54.932;73.338;2022-08-01T16:26:13;5.63;;;3.00;;
60993;SDS011;47611;54.932;73.338;2022-08-01T16:29:44;6.65;;;2.80;;
60993;SDS011;47611;54.932;73.338;2022-08-01T16:33:11;6.68;;;3.00;;
60993;SDS011;47611;54.932;73.338;2022-08-01T16:36:42;6.50;;;2.80;;
60993;SDS011;47611;54.932;73.338;2022-08-01T16:40:09;4.97;;;2.50;;
60993;SDS011;47611;54.932;73.338;2022-08-01T16:43:35;4.35;;;3.15;;
60993;SDS011;47611;54.932;73.338;2022-08-01T16:47:06;6.35;;;3.53;;
60993;SDS011;47611;54.932;73.338;2022-08-01T16:50:43;15.85;;;8.13;;
60993;SDS011;47611;54.932;73.338;2022-08-01T16:54:13;11.32;;;5.47;;
60993;SDS011;47611;54.932;73.338;2022-08-01T16:57:44;9.93;;;5.93;;
60993;SDS011;47611;54.932;73.338;2022-08-01T17:01:11;10.43;;;5.82;;
60993;SDS011;47611;54.932;73.338;2022-08-01T17:04:37;50.88;;;23.60;;
60993;SDS011;47611;54.932;73.338;2022-08-01T17:08:07;24.08;;;11.70;;
60993;SDS011;47611;54.932;73.338;2022-08-01T17:11:35;5.00;;;3.13;;
60993;SDS011;47611;54.932;73.338;2022-08-01T17:15:01;5.03;;;2.70;;
60993;SDS011;47611;54.932;73.338;2022-08-01T17:18:28;3.95;;;2.35;;
60993;SDS011;47611;54.932;73.338;2022-08-01T17:21:54;10.43;;;6.03;;
60993;SDS011;47611;54.932;73.338;2022-08-01T17:25:26;36.42;;;20.15;;
60993;SDS011;47611;54.932;73.338;2022-08-01T17:28:52;23.55;;;12.48;;
60993;SDS011;47611;54.932;73.338;2022-08-01T17:32:28;13.15;;;7.95;;
60993;SDS011;47611;54.932;73.338;2022-08-01T17:35:55;8.77;;;4.93;;
60993;SDS011;47611;54.932;73.338;2022-08-01T17:39:21;24.95;;;13.07;;
60993;SDS011;47611;54.932;73.338;2022-08-01T17:42:47;40.97;;;20.70;;
60993;SDS011;47611;54.932;73.338;2022-08-01T17:46:14;27.85;;;13.60;;
60993;SDS011;47611;54.932;73.338;2022-08-01T17:49:50;16.83;;;11.30;;
60993;SDS011;47611;54.932;73.338;2022-08-01T17:53:18;11.50;;;7.35;;
60993;SDS011;47611;54.932;73.338;2022-08-01T17:56:55;6.38;;;4.45;;
60993;SDS011;47611;54.932;73.338;2022-08-01T18:00:21;15.38;;;7.95;;
60993;SDS011;47611;54.932;73.338;2022-08-01T18:03:47;33.45;;;19.33;;
60993;SDS011;47611;54.932;73.338;2022-08-01T18:07:13;26.33;;;15.23;;
60993;SDS011;47611;54.932;73.338;2022-08-01T18:10:40;7.70;;;4.93;;
60993;SDS011;47611;54.932;73.338;2022-08-01T18:14:09;4.22;;;2.45;;
60993;SDS011;47611;54.932;73.338;2022-08-01T18:17:40;3.67;;;2.00;;
60993;SDS011;47611;54.932;73.338;2022-08-01T18:21:12;5.35;;;2.15;;
60993;SDS011;47611;54.932;73.338;2022-08-01T18:24:39;4.57;;;2.05;;
60993;SDS011;47611;54.932;73.338;2022-08-01T18:28:06;7.55;;;2.60;;
60993;SDS011;47611;54.932;73.338;2022-08-01T18:31:34;3.22;;;2.00;;
60993;SDS011;47611;54.932;73.338;2022-08-01T18:35:00;3.45;;;1.67;;
60993;SDS011;47611;54.932;73.338;2022-08-01T18:38:28;5.65;;;2.35;;
60993;SDS011;47611;54.932;73.338;2022-08-01T18:41:54;4.43;;;2.05;;
60993;SDS011;47611;54.932;73.338;2022-08-01T18:45:20;5.05;;;2.40;;
60993;SDS011;47611;54.932;73.338;2022-08-01T18:48:46;3.80;;;2.15;;
60993;SDS011;47611;54.932;73.338;2022-08-01T18:52:12;3.30;;;2.05;;
60993;SDS011;47611;54.932;73.338;2022-08-01T18:55:48;5.00;;;2.08;;
60993;SDS011;47611;54.932;73.338;2022-08-01T18:59:15;6.32;;;2.20;;
60993;SDS011;47611;54.932;73.338;2022-08-01T19:02:41;3.08;;;1.90;;
60993;SDS011;47611;54.932;73.338;2022-08-01T19:06:07;3.20;;;1.98;;
60993;SDS011;47611;54.932;73.338;2022-08-01T19:09:34;5.05;;;2.13;;
60993;SDS011;47611;54.932;73.338;2022-08-01T19:13:05;3.42;;;1.90;;
60993;SDS011;47611;54.932;73.338;2022-08-01T19:16:31;5.28;;;2.15;;
60993;SDS011;47611;54.932;73.338;2022-08-01T19:19:57;2.67;;;2.03;;
60993;SDS011;47611;54.932;73.338;2022-08-01T19:23:28;4.35;;;2.10;;
60993;SDS011;47611;54.932;73.338;2022-08-01T19:26:55;5.50;;;2.33;;
60993;SDS011;47611;54.932;73.338;2022-08-01T19:30:27;2.45;;;1.90;;
60993;SDS011;47611;54.932;73.338;2022-08-01T19:33:56;2.38;;;2.17;;
60993;SDS011;47611;54.932;73.338;2022-08-01T19:37:28;2.50;;;1.85;;
60993;SDS011;47611;54.932;73.338;2022-08-01T19:40:54;2.45;;;1.80;;
60993;SDS011;47611;54.932;73.338;2022-08-01T19:44:24;2.13;;;1.90;;
60993;SDS011;47611;54.932;73.338;2022-08-01T19:47:54;4.53;;;1.70;;
60993;SDS011;47611;54.932;73.338;2022-08-01T19:51:26;2.97;;;1.80;;
60993;SDS011;47611;54.932;73.338;2022-08-01T19:55:03;3.00;;;1.70;;
60993;SDS011;47611;54.932;73.338;2022-08-01T19:58:38;1.98;;;1.67;;
60993;SDS011;47611;54.932;73.338;2022-08-01T20:02:05;2.83;;;1.67;;
60993;SDS011;47611;54.932;73.338;2022-08-01T20:05:37;5.33;;;1.70;;
60993;SDS011;47611;54.932;73.338;2022-08-01T20:09:04;2.53;;;1.70;;
60993;SDS011;47611;54.932;73.338;2022-08-01T20:12:41;4.43;;;1.73;;
60993;SDS011;47611;54.932;73.338;2022-08-01T20:16:17;2.40;;;1.50;;
60993;SDS011;47611;54.932;73.338;2022-08-01T20:19:45;3.05;;;1.73;;
60993;SDS011;47611;54.932;73.338;2022-08-01T20:23:18;3.28;;;1.40;;
60993;SDS011;47611;54.932;73.338;2022-08-01T20:26:45;2.83;;;1.73;;
60993;SDS011;47611;54.932;73.338;2022-08-01T20:30:23;1.98;;;1.50;;
60993;SDS011;47611;54.932;73.338;2022-08-01T20:33:58;2.85;;;1.58;;
60993;SDS011;47611;54.932;73.338;2022-08-01T20:37:26;2.60;;;1.60;;
60993;SDS011;47611;54.932;73.338;2022-08-01T20:40:55;1.83;;;1.55;;
60993;SDS011;47611;54.932;73.338;2022-08-01T20:44:21;2.45;;;1.75;;
60993;SDS011;47611;54.932;73.338;2022-08-01T20:47:48;1.75;;;1.52;;
60993;SDS011;47611;54.932;73.338;2022-08-01T20:51:15;4.47;;;1.80;;
60993;SDS011;47611;54.932;73.338;2022-08-01T20:54:47;1.95;;;1.70;;
60993;SDS011;47611;54.932;73.338;2022-08-01T20:58:30;4.50;;;1.70;;
60993;SDS011;47611;54.932;73.338;2022-08-01T21:05:41;2.60;;;1.70;;
60993;SDS011;47611;54.932;73.338;2022-08-01T21:09:17;3.35;;;1.75;;
60993;SDS011;47611;54.932;73.338;2022-08-01T21:13:00;3.17;;;1.70;;
60993;SDS011;47611;54.932;73.338;2022-08-01T21:16:28;3.15;;;2.00;;
60993;SDS011;47611;54.932;73.338;2022-08-01T21:20:04;3.00;;;1.77;;